sensor_id;sensor_type;location;lat;lon;timestamp;pressure;altitude;pressure_sealevel;temperature;humidity
64713;BME280;51140;45.340;5.980;2023-04-23T00:01:36;97055.00;;;11.46;100.00
64713;BME280;51140;45.340;5.980;2023-04-23T00:04:03;96975.84;;;11.58;100.00
64713;BME280;51140;45.340;5.980;2023-04-23T00:06:32;96956.22;;;11.65;100.00
64713;BME280;51140;45.340;5.980;2023-04-23T00:08:59;96935.06;;;11.57;100.00
64713;BME280;51140;45.340;5.980;2023-04-23T00:11:25;96927.22;;;11.57;100.00
64713;BME280;51140;45.340;5.980;2023-04-23T00:13:50;96953.44;;;11.55;100.00
64713;BME280;51140;45.340;5.980;2023-04-23T00:16:17;97000.84;;;11.49;100.00
64713;BME280;51140;45.340;5.980;2023-04-23T00:18:43;97054.03;;;11.47;100.00
64713;BME280;51140;45.340;5.980;2023-04-23T00:21:08;97085.28;;;11.36;100.00
64713;BME280;51140;45.340;5.980;2023-04-23T00:23:34;97084.94;;;11.40;100.00
64713;BME280;51140;45.340;5.980;2023-04-23T00:25:59;97160.69;;;11.39;100.00
64713;BME280;51140;45.340;5.980;2023-04-23T00:28:26;97144.50;;;11.46;100.00
64713;BME280;51140;45.340;5.980;2023-04-23T00:30:51;97232.44;;;11.44;100.00
64713;BME280;51140;45.340;5.980;2023-04-23T00:33:16;97299.09;;;11.36;100.00
64713;BME280;51140;45.340;5.980;2023-04-23T00:35:42;97329.13;;;11.41;100.00
64713;BME280;51140;45.340;5.980;2023-04-23T00:38:07;97393.38;;;11.42;100.00
64713;BME280;51140;45.340;5.980;2023-04-23T00:40:33;97529.28;;;11.38;100.00
64713;BME280;51140;45.340;5.980;2023-04-23T00:42:59;97592.38;;;11.30;100.00
64713;BME280;51140;45.340;5.980;2023-04-23T00:45:24;97599.91;;;11.35;100.00
64713;BME280;51140;45.340;5.980;2023-04-23T00:47:49;97469.50;;;11.35;100.00
64713;BME280;51140;45.340;5.980;2023-04-23T00:50:15;97530.63;;;11.30;100.00
64713;BME280;51140;45.340;5.980;2023-04-23T00:52:40;97587.50;;;11.38;100.00
64713;BME280;51140;45.340;5.980;2023-04-23T00:55:07;97655.59;;;11.34;100.00
64713;BME280;51140;45.340;5.980;2023-04-23T00:57:37;97776.19;;;11.23;100.00
64713;BME280;51140;45.340;5.980;2023-04-23T01:00:04;97857.41;;;11.31;100.00
64713;BME280;51140;45.340;5.980;2023-04-23T01:02:31;97921.84;;;11.29;100.00
64713;BME280;51140;45.340;5.980;2023-04-23T01:04:57;97974.66;;;11.33;100.00
64713;BME280;51140;45.340;5.980;2023-04-23T01:07:23;97991.16;;;11.17;100.00
64713;BME280;51140;45.340;5.980;2023-04-23T01:09:50;97978.97;;;11.18;100.00
64713;BME280;51140;45.340;5.980;2023-04-23T01:12:16;98037.31;;;11.15;100.00
64713;BME280;51140;45.340;5.980;2023-04-23T01:14:42;98083.03;;;11.22;100.00
64713;BME280;51140;45.340;5.980;2023-04-23T01:17:08;98126.72;;;11.17;100.00
64713;BME280;51140;45.340;5.980;2023-04-23T01:19:34;98165.06;;;11.15;100.00
64713;BME280;51140;45.340;5.980;2023-04-23T01:22:01;98274.56;;;11.15;100.00
64713;BME280;51140;45.340;5.980;2023-04-23T01:24:28;98353.19;;;11.25;100.00
64713;BME280;51140;45.340;5.980;2023-04-23T01:26:55;98461.38;;;11.16;100.00
64713;BME280;51140;45.340;5.980;2023-04-23T01:29:22;98525.81;;;11.14;100.00
64713;BME280;51140;45.340;5.980;2023-04-23T01:31:49;98576.97;;;11.17;100.00
64713;BME280;51140;45.340;5.980;2023-04-23T01:34:15;98617.34;;;11.08;100.00
64713;BME280;51140;45.340;5.980;2023-04-23T01:36:42;98694.44;;;11.14;100.00
64713;BME280;51140;45.340;5.980;2023-04-23T01:39:08;98801.16;;;11.18;100.00
64713;BME280;51140;45.340;5.980;2023-04-23T01:41:34;98853.44;;;11.15;100.00
64713;BME280;51140;45.340;5.980;2023-04-23T01:44:00;98866.59;;;11.12;100.00
64713;BME280;51140;45.340;5.980;2023-04-23T01:46:26;98928.13;;;11.16;100.00
64713;BME280;51140;45.340;5.980;2023-04-23T01:48:51;98990.97;;;11.10;100.00
64713;BME280;51140;45.340;5.980;2023-04-23T01:51:17;99028.94;;;11.17;100.00
64713;BME280;51140;45.340;5.980;2023-04-23T01:53:42;99031.72;;;11.13;100.00
64713;BME280;51140;45.340;5.980;2023-04-23T01:56:08;99043.00;;;11.13;100.00
64713;BME280;51140;45.340;5.980;2023-04-23T01:58:34;99065.56;;;11.14;100.00
64713;BME280;51140;45.340;5.980;2023-04-23T02:01:00;99098.69;;;11.12;100.00
64713;BME280;51140;45.340;5.980;2023-04-23T02:03:27;99125.28;;;11.20;100.00
64713;BME280;51140;45.340;5.980;2023-04-23T02:05:54;99148.50;;;11.28;100.00
64713;BME280;51140;45.340;5.980;2023-04-23T02:08:20;99156.09;;;11.34;100.00
64713;BME280;51140;45.340;5.980;2023-04-23T02:10:46;99199.03;;;11.47;100.00
64713;BME280;51140;45.340;5.980;2023-04-23T02:13:11;99197.22;;;11.49;100.00
64713;BME280;51140;45.340;5.980;2023-04-23T02:15:36;99198.00;;;11.29;100.00
64713;BME280;51140;45.340;5.980;2023-04-23T02:18:02;99209.28;;;11.30;100.00
64713;BME280;51140;45.340;5.980;2023-04-23T02:20:28;99241.63;;;11.26;100.00
64713;BME280;51140;45.340;5.980;2023-04-23T02:22:53;99260.78;;;11.25;100.00
64713;BME280;51140;45.340;5.980;2023-04-23T02:25:19;99265.66;;;11.34;100.00
64713;BME280;51140;45.340;5.980;2023-04-23T02:27:46;99274.56;;;11.28;100.00
64713;BME280;51140;45.340;5.980;2023-04-23T02:30:12;99268.25;;;11.34;100.00
64713;BME280;51140;45.340;5.980;2023-04-23T02:32:38;99280.84;;;11.23;100.00
64713;BME280;51140;45.340;5.980;2023-04-23T02:35:04;99297.59;;;11.16;100.00
64713;BME280;51140;45.340;5.980;2023-04-23T02:37:33;99322.03;;;11.13;100.00
64713;BME280;51140;45.340;5.980;2023-04-23T02:39:59;99324.53;;;11.16;100.00
64713;BME280;51140;45.340;5.980;2023-04-23T02:42:25;99316.94;;;11.10;100.00
64713;BME280;51140;45.340;5.980;2023-04-23T02:44:50;99314.53;;;11.04;100.00
64713;BME280;51140;45.340;5.980;2023-04-23T02:47:15;99314.44;;;11.07;100.00
64713;BME280;51140;45.340;5.980;2023-04-23T02:49:41;99296.97;;;11.09;100.00
64713;BME280;51140;45.340;5.980;2023-04-23T02:52:06;99280.34;;;11.12;100.00
64713;BME280;51140;45.340;5.980;2023-04-23T02:54:32;99253.53;;;11.08;100.00
64713;BME280;51140;45.340;5.980;2023-04-23T02:56:57;99250.25;;;11.03;100.00
64713;BME280;51140;45.340;5.980;2023-04-23T02:59:23;99252.88;;;11.03;100.00
64713;BME280;51140;45.340;5.980;2023-04-23T03:01:49;99249.41;;;11.03;100.00
64713;BME280;51140;45.340;5.980;2023-04-23T03:04:15;99240.16;;;11.17;100.00
64713;BME280;51140;45.340;5.980;2023-04-23T03:06:40;99309.91;;;11.12;100.00
64713;BME280;51140;45.340;5.980;2023-04-23T03:09:06;99336.41;;;11.00;100.00
64713;BME280;51140;45.340;5.980;2023-04-23T03:11:32;99355.28;;;11.07;100.00
64713;BME280;51140;45.340;5.980;2023-04-23T03:13:58;99349.22;;;11.06;100.00
64713;BME280;51140;45.340;5.980;2023-04-23T03:16:23;99345.78;;;11.06;100.00
64713;BME280;51140;45.340;5.980;2023-04-23T03:18:49;99360.50;;;11.07;100.00
64713;BME280;51140;45.340;5.980;2023-04-23T03:21:14;99357.31;;;10.98;100.00
64713;BME280;51140;45.340;5.980;2023-04-23T03:23:39;99374.88;;;10.93;100.00
64713;BME280;51140;45.340;5.980;2023-04-23T03:26:05;99386.91;;;10.97;100.00
64713;BME280;51140;45.340;5.980;2023-04-23T03:28:30;99401.59;;;11.00;100.00
64713;BME280;51140;45.340;5.980;2023-04-23T03:30:56;99386.59;;;11.07;100.00
64713;BME280;51140;45.340;5.980;2023-04-23T03:33:21;99393.88;;;10.97;100.00
64713;BME280;51140;45.340;5.980;2023-04-23T03:35:46;99392.91;;;10.99;100.00
64713;BME280;51140;45.340;5.980;2023-04-23T03:38:12;99356.41;;;10.99;100.00
64713;BME280;51140;45.340;5.980;2023-04-23T03:40:37;99341.00;;;10.93;100.00
64713;BME280;51140;45.340;5.980;2023-04-23T03:43:03;99345.44;;;10.90;100.00
64713;BME280;51140;45.340;5.980;2023-04-23T03:45:29;99329.13;;;10.85;100.00
64713;BME280;51140;45.340;5.980;2023-04-23T03:47:55;99299.59;;;10.84;100.00
64713;BME280;51140;45.340;5.980;2023-04-23T03:50:20;99281.25;;;10.87;100.00
64713;BME280;51140;45.340;5.980;2023-04-23T03:52:46;99260.44;;;10.86;100.00
64713;BME280;51140;45.340;5.980;2023-04-23T03:55:11;99220.28;;;10.91;100.00
64713;BME280;51140;45.340;5.980;2023-04-23T03:57:37;99148.34;;;10.86;100.00
64713;BME280;51140;45.340;5.980;2023-04-23T04:00:06;99143.47;;;10.77;100.00
64713;BME280;51140;45.340;5.980;2023-04-23T04:02:32;99133.44;;;10.66;100.00
64713;BME280;51140;45.340;5.980;2023-04-23T04:04:58;99130.81;;;10.66;100.00
64713;BME280;51140;45.340;5.980;2023-04-23T04:07:23;99126.34;;;10.70;100.00
64713;BME280;51140;45.340;5.980;2023-04-23T04:09:48;99123.84;;;10.66;100.00
64713;BME280;51140;45.340;5.980;2023-04-23T04:12:14;99111.56;;;10.70;100.00
64713;BME280;51140;45.340;5.980;2023-04-23T04:14:40;99104.53;;;10.72;100.00
64713;BME280;51140;45.340;5.980;2023-04-23T04:17:06;99097.56;;;10.73;100.00
64713;BME280;51140;45.340;5.980;2023-04-23T04:19:32;99075.56;;;10.58;100.00
64713;BME280;51140;45.340;5.980;2023-04-23T04:21:57;99065.31;;;10.53;100.00
64713;BME280;51140;45.340;5.980;2023-04-23T04:24:23;99061.00;;;10.52;100.00
64713;BME280;51140;45.340;5.980;2023-04-23T04:26:49;99013.13;;;10.55;100.00
64713;BME280;51140;45.340;5.980;2023-04-23T04:29:16;99005.44;;;10.52;100.00
64713;BME280;51140;45.340;5.980;2023-04-23T04:31:42;99027.91;;;10.54;100.00
64713;BME280;51140;45.340;5.980;2023-04-23T04:34:07;99026.72;;;10.63;100.00
64713;BME280;51140;45.340;5.980;2023-04-23T04:36:34;99003.56;;;10.55;100.00
64713;BME280;51140;45.340;5.980;2023-04-23T04:39:00;98978.59;;;10.50;100.00
64713;BME280;51140;45.340;5.980;2023-04-23T04:41:27;98956.31;;;10.43;100.00
64713;BME280;51140;45.340;5.980;2023-04-23T04:43:53;98850.19;;;10.48;100.00
64713;BME280;51140;45.340;5.980;2023-04-23T04:46:19;98857.56;;;10.58;100.00
64713;BME280;51140;45.340;5.980;2023-04-23T04:48:45;98846.41;;;10.55;100.00
64713;BME280;51140;45.340;5.980;2023-04-23T04:51:11;98828.56;;;10.66;100.00
64713;BME280;51140;45.340;5.980;2023-04-23T04:53:37;98823.75;;;10.57;100.00
64713;BME280;51140;45.340;5.980;2023-04-23T04:56:02;98805.16;;;10.44;100.00
64713;BME280;51140;45.340;5.980;2023-04-23T04:58:28;98730.63;;;10.42;100.00
64713;BME280;51140;45.340;5.980;2023-04-23T05:00:54;98712.63;;;10.35;100.00
64713;BME280;51140;45.340;5.980;2023-04-23T05:03:20;98700.41;;;10.58;100.00
64713;BME280;51140;45.340;5.980;2023-04-23T05:05:45;98684.44;;;10.65;100.00
64713;BME280;51140;45.340;5.980;2023-04-23T05:08:12;98674.91;;;10.64;100.00
64713;BME280;51140;45.340;5.980;2023-04-23T05:10:41;98673.47;;;10.78;100.00
64713;BME280;51140;45.340;5.980;2023-04-23T05:13:06;98670.41;;;10.68;100.00
64713;BME280;51140;45.340;5.980;2023-04-23T05:15:31;98674.72;;;10.69;100.00
64713;BME280;51140;45.340;5.980;2023-04-23T05:17:57;98676.00;;;10.79;100.00
64713;BME280;51140;45.340;5.980;2023-04-23T05:20:22;98678.00;;;10.93;100.00
64713;BME280;51140;45.340;5.980;2023-04-23T05:22:47;98674.63;;;10.91;100.00
64713;BME280;51140;45.340;5.980;2023-04-23T05:25:13;98673.06;;;10.87;100.00
64713;BME280;51140;45.340;5.980;2023-04-23T05:27:39;98667.03;;;10.86;100.00
64713;BME280;51140;45.340;5.980;2023-04-23T05:30:06;98670.59;;;10.84;100.00
64713;BME280;51140;45.340;5.980;2023-04-23T05:32:33;98661.66;;;10.89;100.00
64713;BME280;51140;45.340;5.980;2023-04-23T05:34:59;98659.00;;;10.91;100.00
64713;BME280;51140;45.340;5.980;2023-04-23T05:37:24;98660.63;;;11.12;100.00
64713;BME280;51140;45.340;5.980;2023-04-23T05:39:50;98656.59;;;11.05;100.00
64713;BME280;51140;45.340;5.980;2023-04-23T05:42:15;98655.03;;;11.20;100.00
64713;BME280;51140;45.340;5.980;2023-04-23T05:44:40;98688.38;;;11.88;100.00
64713;BME280;51140;45.340;5.980;2023-04-23T05:47:06;98655.53;;;11.47;100.00
64713;BME280;51140;45.340;5.980;2023-04-23T05:49:33;98652.91;;;11.47;100.00
64713;BME280;51140;45.340;5.980;2023-04-23T05:51:59;98655.91;;;11.75;100.00
64713;BME280;51140;45.340;5.980;2023-04-23T05:54:24;98660.34;;;11.92;100.00
64713;BME280;51140;45.340;5.980;2023-04-23T05:56:52;98668.44;;;12.05;100.00
64713;BME280;51140;45.340;5.980;2023-04-23T05:59:20;98681.88;;;12.32;100.00
64713;BME280;51140;45.340;5.980;2023-04-23T06:01:51;98698.25;;;12.35;100.00
64713;BME280;51140;45.340;5.980;2023-04-23T06:04:27;98720.44;;;12.09;100.00
64713;BME280;51140;45.340;5.980;2023-04-23T06:07:05;98730.84;;;11.92;100.00
64713;BME280;51140;45.340;5.980;2023-04-23T06:09:38;98728.59;;;11.84;100.00
64713;BME280;51140;45.340;5.980;2023-04-23T06:15:55;98750.16;;;11.69;100.00
64713;BME280;51140;45.340;5.980;2023-04-23T06:18:27;98769.34;;;11.68;100.00
64713;BME280;51140;45.340;5.980;2023-04-23T06:26:57;98919.09;;;13.14;100.00
64713;BME280;51140;45.340;5.980;2023-04-23T06:37:10;98944.28;;;11.46;100.00
64713;BME280;51140;45.340;5.980;2023-04-23T06:42:52;98958.16;;;11.47;100.00
64713;BME280;51140;45.340;5.980;2023-04-23T06:45:23;98959.88;;;11.27;100.00
64713;BME280;51140;45.340;5.980;2023-04-23T06:47:59;98934.91;;;11.20;100.00
64713;BME280;51140;45.340;5.980;2023-04-23T06:50:25;98934.28;;;11.36;100.00
64713;BME280;51140;45.340;5.980;2023-04-23T06:52:56;98951.66;;;11.37;100.00
64713;BME280;51140;45.340;5.980;2023-04-23T06:55:22;98943.75;;;11.58;100.00
64713;BME280;51140;45.340;5.980;2023-04-23T06:57:58;98945.31;;;11.42;100.00
64713;BME280;51140;45.340;5.980;2023-04-23T07:00:34;98934.16;;;11.59;100.00
64713;BME280;51140;45.340;5.980;2023-04-23T07:03:08;98941.19;;;11.77;100.00
64713;BME280;51140;45.340;5.980;2023-04-23T07:05:52;98943.16;;;11.72;100.00
64713;BME280;51140;45.340;5.980;2023-04-23T07:08:31;98932.00;;;11.89;100.00
64713;BME280;51140;45.340;5.980;2023-04-23T07:11:19;98916.06;;;11.95;100.00
64713;BME280;51140;45.340;5.980;2023-04-23T07:13:53;98939.75;;;11.90;100.00
64713;BME280;51140;45.340;5.980;2023-04-23T07:16:24;99004.97;;;11.92;100.00
64713;BME280;51140;45.340;5.980;2023-04-23T07:18:50;99019.06;;;11.88;100.00
64713;BME280;51140;45.340;5.980;2023-04-23T07:21:15;99012.09;;;11.88;100.00
64713;BME280;51140;45.340;5.980;2023-04-23T07:23:41;99003.00;;;11.97;100.00
64713;BME280;51140;45.340;5.980;2023-04-23T07:26:06;99011.31;;;11.86;100.00
64713;BME280;51140;45.340;5.980;2023-04-23T07:28:31;99009.47;;;11.88;100.00
64713;BME280;51140;45.340;5.980;2023-04-23T07:30:57;99007.44;;;11.95;100.00
64713;BME280;51140;45.340;5.980;2023-04-23T07:33:23;99003.69;;;12.21;100.00
64713;BME280;51140;45.340;5.980;2023-04-23T07:35:49;98988.66;;;12.26;100.00
64713;BME280;51140;45.340;5.980;2023-04-23T07:38:14;98982.81;;;12.59;100.00
64713;BME280;51140;45.340;5.980;2023-04-23T07:40:40;98972.06;;;12.65;100.00
64713;BME280;51140;45.340;5.980;2023-04-23T07:43:05;98963.00;;;12.91;100.00
64713;BME280;51140;45.340;5.980;2023-04-23T07:45:31;98958.72;;;13.07;100.00
64713;BME280;51140;45.340;5.980;2023-04-23T07:47:56;98866.78;;;12.97;100.00
64713;BME280;51140;45.340;5.980;2023-04-23T07:50:22;98854.53;;;13.15;100.00
64713;BME280;51140;45.340;5.980;2023-04-23T07:52:47;98872.03;;;13.49;100.00
64713;BME280;51140;45.340;5.980;2023-04-23T07:55:12;98858.22;;;14.27;100.00
64713;BME280;51140;45.340;5.980;2023-04-23T07:57:38;98811.47;;;14.51;100.00
64713;BME280;51140;45.340;5.980;2023-04-23T08:00:04;98770.78;;;14.74;100.00
64713;BME280;51140;45.340;5.980;2023-04-23T08:02:33;98672.34;;;14.38;100.00
64713;BME280;51140;45.340;5.980;2023-04-23T08:04:59;98566.41;;;14.99;100.00
64713;BME280;51140;45.340;5.980;2023-04-23T08:07:24;98319.56;;;16.77;100.00
64713;BME280;51140;45.340;5.980;2023-04-23T08:09:50;97956.19;;;17.78;100.00
64713;BME280;51140;45.340;5.980;2023-04-23T08:12:15;97459.56;;;18.21;100.00
64713;BME280;51140;45.340;5.980;2023-04-23T08:14:41;96918.78;;;20.15;100.00
64713;BME280;51140;45.340;5.980;2023-04-23T08:17:07;96177.25;;;22.35;100.00
64713;BME280;51140;45.340;5.980;2023-04-23T08:19:32;95995.28;;;21.33;100.00
64713;BME280;51140;45.340;5.980;2023-04-23T08:21:58;96085.50;;;23.71;100.00
64713;BME280;51140;45.340;5.980;2023-04-23T08:24:23;96028.94;;;24.52;100.00
64713;BME280;51140;45.340;5.980;2023-04-23T08:26:49;97174.44;;;23.36;100.00
64713;BME280;51140;45.340;5.980;2023-04-23T08:29:14;97433.94;;;24.12;100.00
64713;BME280;51140;45.340;5.980;2023-04-23T08:31:39;97580.34;;;24.50;100.00
64713;BME280;51140;45.340;5.980;2023-04-23T08:34:05;97641.44;;;25.77;100.00
64713;BME280;51140;45.340;5.980;2023-04-23T08:36:30;97677.63;;;27.01;100.00
64713;BME280;51140;45.340;5.980;2023-04-23T08:38:56;97687.19;;;27.52;100.00
64713;BME280;51140;45.340;5.980;2023-04-23T08:41:22;97698.66;;;27.67;100.00
64713;BME280;51140;45.340;5.980;2023-04-23T08:44:11;97683.66;;;28.40;100.00
64713;BME280;51140;45.340;5.980;2023-04-23T08:46:41;97696.69;;;27.95;100.00
64713;BME280;51140;45.340;5.980;2023-04-23T08:49:07;97693.81;;;27.97;100.00
64713;BME280;51140;45.340;5.980;2023-04-23T08:51:34;97705.41;;;27.63;100.00
64713;BME280;51140;45.340;5.980;2023-04-23T08:54:03;97692.75;;;27.91;100.00
64713;BME280;51140;45.340;5.980;2023-04-23T08:56:30;97701.97;;;26.92;100.00
64713;BME280;51140;45.340;5.980;2023-04-23T08:58:57;97690.44;;;28.29;100.00
64713;BME280;51140;45.340;5.980;2023-04-23T09:01:23;97700.72;;;27.43;100.00
64713;BME280;51140;45.340;5.980;2023-04-23T09:03:49;97709.44;;;27.93;100.00
64713;BME280;51140;45.340;5.980;2023-04-23T09:06:14;97720.50;;;26.50;100.00
64713;BME280;51140;45.340;5.980;2023-04-23T09:08:40;97684.81;;;28.04;100.00
64713;BME280;51140;45.340;5.980;2023-04-23T09:11:06;97691.69;;;28.40;100.00
64713;BME280;51140;45.340;5.980;2023-04-23T09:13:32;97678.13;;;28.48;100.00
64713;BME280;51140;45.340;5.980;2023-04-23T09:15:58;97665.78;;;28.74;100.00
64713;BME280;51140;45.340;5.980;2023-04-23T09:18:23;97656.19;;;29.70;100.00
64713;BME280;51140;45.340;5.980;2023-04-23T09:20:49;97648.66;;;29.14;100.00
64713;BME280;51140;45.340;5.980;2023-04-23T09:23:14;97642.84;;;29.44;100.00
64713;BME280;51140;45.340;5.980;2023-04-23T09:25:41;97659.56;;;29.39;100.00
64713;BME280;51140;45.340;5.980;2023-04-23T09:28:07;97660.78;;;29.63;100.00
64713;BME280;51140;45.340;5.980;2023-04-23T09:30:53;97636.84;;;31.19;100.00
64713;BME280;51140;45.340;5.980;2023-04-23T09:33:18;97579.53;;;33.15;100.00
64713;BME280;51140;45.340;5.980;2023-04-23T09:35:43;97598.81;;;31.70;100.00
64713;BME280;51140;45.340;5.980;2023-04-23T09:38:12;97588.13;;;32.24;100.00
64713;BME280;51140;45.340;5.980;2023-04-23T09:40:37;97547.31;;;34.68;100.00
64713;BME280;51140;45.340;5.980;2023-04-23T09:43:03;97582.72;;;32.12;100.00
64713;BME280;51140;45.340;5.980;2023-04-23T09:45:30;97639.88;;;28.00;100.00
64713;BME280;51140;45.340;5.980;2023-04-23T09:47:57;97674.19;;;27.14;100.00
64713;BME280;51140;45.340;5.980;2023-04-23T09:50:37;97681.50;;;25.10;100.00
64713;BME280;51140;45.340;5.980;2023-04-23T09:53:04;97694.94;;;24.56;100.00
64713;BME280;51140;45.340;5.980;2023-04-23T09:55:37;97691.44;;;24.33;100.00
64713;BME280;51140;45.340;5.980;2023-04-23T09:58:11;97697.38;;;22.44;100.00
64713;BME280;51140;45.340;5.980;2023-04-23T10:00:38;97666.34;;;22.29;100.00
64713;BME280;51140;45.340;5.980;2023-04-23T10:03:06;97633.00;;;22.67;100.00
64713;BME280;51140;45.340;5.980;2023-04-23T10:05:37;97648.56;;;23.02;100.00
64713;BME280;51140;45.340;5.980;2023-04-23T10:08:05;97642.78;;;22.66;100.00
64713;BME280;51140;45.340;5.980;2023-04-23T10:10:33;97637.94;;;22.78;100.00
64713;BME280;51140;45.340;5.980;2023-04-23T10:12:58;97646.69;;;23.19;100.00
64713;BME280;51140;45.340;5.980;2023-04-23T10:15:25;97644.47;;;22.51;100.00
64713;BME280;51140;45.340;5.980;2023-04-23T10:17:51;97629.38;;;23.79;100.00
64713;BME280;51140;45.340;5.980;2023-04-23T10:20:20;97624.94;;;24.02;100.00
64713;BME280;51140;45.340;5.980;2023-04-23T10:22:46;97632.22;;;23.77;100.00
64713;BME280;51140;45.340;5.980;2023-04-23T10:25:12;97639.06;;;23.71;100.00
64713;BME280;51140;45.340;5.980;2023-04-23T10:27:42;97644.84;;;23.36;100.00
64713;BME280;51140;45.340;5.980;2023-04-23T10:30:09;97640.03;;;23.31;100.00
64713;BME280;51140;45.340;5.980;2023-04-23T10:32:36;97636.34;;;23.40;100.00
64713;BME280;51140;45.340;5.980;2023-04-23T10:35:06;97617.81;;;24.63;100.00
64713;BME280;51140;45.340;5.980;2023-04-23T10:37:33;97639.34;;;22.82;100.00
64713;BME280;51140;45.340;5.980;2023-04-23T10:40:11;97626.97;;;23.22;100.00
64713;BME280;51140;45.340;5.980;2023-04-23T10:42:39;97623.84;;;23.49;100.00
64713;BME280;51140;45.340;5.980;2023-04-23T10:45:22;97643.19;;;21.88;100.00
64713;BME280;51140;45.340;5.980;2023-04-23T10:47:48;97625.31;;;21.99;100.00
64713;BME280;51140;45.340;5.980;2023-04-23T10:52:45;97611.94;;;22.49;100.00
64713;BME280;51140;45.340;5.980;2023-04-23T10:55:16;97620.06;;;22.39;100.00
64713;BME280;51140;45.340;5.980;2023-04-23T11:00:21;97612.25;;;22.95;100.00
64713;BME280;51140;45.340;5.980;2023-04-23T11:02:49;97614.22;;;23.01;100.00
64713;BME280;51140;45.340;5.980;2023-04-23T11:05:15;97606.78;;;22.88;100.00
64713;BME280;51140;45.340;5.980;2023-04-23T11:07:41;97609.56;;;23.03;100.00
64713;BME280;51140;45.340;5.980;2023-04-23T11:10:13;97612.59;;;22.84;100.00
64713;BME280;51140;45.340;5.980;2023-04-23T11:12:40;97613.25;;;22.37;100.00
64713;BME280;51140;45.340;5.980;2023-04-23T11:15:16;97614.53;;;22.00;100.00
64713;BME280;51140;45.340;5.980;2023-04-23T11:20:19;97595.03;;;22.42;100.00
64713;BME280;51140;45.340;5.980;2023-04-23T11:22:46;97595.16;;;22.81;100.00
64713;BME280;51140;45.340;5.980;2023-04-23T11:25:21;97601.50;;;22.15;100.00
64713;BME280;51140;45.340;5.980;2023-04-23T11:27:49;97602.91;;;21.26;100.00
64713;BME280;51140;45.340;5.980;2023-04-23T11:30:15;97603.72;;;21.77;100.00
64713;BME280;51140;45.340;5.980;2023-04-23T11:32:43;97582.75;;;22.49;100.00
64713;BME280;51140;45.340;5.980;2023-04-23T11:35:11;97588.88;;;22.82;100.00
64713;BME280;51140;45.340;5.980;2023-04-23T11:37:41;97583.63;;;23.13;100.00
64713;BME280;51140;45.340;5.980;2023-04-23T11:40:08;97577.72;;;22.95;100.00
64713;BME280;51140;45.340;5.980;2023-04-23T11:42:51;97575.50;;;23.06;100.00
64713;BME280;51140;45.340;5.980;2023-04-23T11:45:20;97569.56;;;22.80;100.00
64713;BME280;51140;45.340;5.980;2023-04-23T11:47:48;97567.94;;;22.87;100.00
64713;BME280;51140;45.340;5.980;2023-04-23T11:50:22;97571.19;;;23.44;100.00
64713;BME280;51140;45.340;5.980;2023-04-23T11:52:48;97568.09;;;23.33;100.00
64713;BME280;51140;45.340;5.980;2023-04-23T11:55:14;97560.25;;;23.00;100.00
64713;BME280;51140;45.340;5.980;2023-04-23T11:57:48;97571.06;;;22.99;100.00
64713;BME280;51140;45.340;5.980;2023-04-23T12:05:33;97559.91;;;23.03;100.00
64713;BME280;51140;45.340;5.980;2023-04-23T12:08:14;97552.66;;;23.90;100.00
64713;BME280;51140;45.340;5.980;2023-04-23T12:10:48;97538.47;;;24.44;100.00
64713;BME280;51140;45.340;5.980;2023-04-23T12:13:18;97558.38;;;23.56;100.00
64713;BME280;51140;45.340;5.980;2023-04-23T12:15:50;97550.50;;;22.93;100.00
64713;BME280;51140;45.340;5.980;2023-04-23T12:18:16;97555.91;;;23.07;100.00
64713;BME280;51140;45.340;5.980;2023-04-23T12:20:42;97558.53;;;23.24;100.00
64713;BME280;51140;45.340;5.980;2023-04-23T12:23:07;97534.47;;;23.48;100.00
64713;BME280;51140;45.340;5.980;2023-04-23T12:25:34;97541.69;;;23.31;100.00
64713;BME280;51140;45.340;5.980;2023-04-23T12:28:00;97520.88;;;23.43;100.00
64713;BME280;51140;45.340;5.980;2023-04-23T12:30:29;97509.06;;;23.45;100.00
64713;BME280;51140;45.340;5.980;2023-04-23T12:32:59;97517.00;;;23.99;100.00
64713;BME280;51140;45.340;5.980;2023-04-23T12:35:41;97513.31;;;24.46;100.00
64713;BME280;51140;45.340;5.980;2023-04-23T12:38:11;97511.72;;;23.45;100.00
64713;BME280;51140;45.340;5.980;2023-04-23T12:40:45;97524.06;;;23.38;100.00
64713;BME280;51140;45.340;5.980;2023-04-23T12:43:11;97522.34;;;23.45;100.00
64713;BME280;51140;45.340;5.980;2023-04-23T12:45:37;97503.97;;;23.36;100.00
64713;BME280;51140;45.340;5.980;2023-04-23T12:48:03;97518.13;;;23.28;100.00
64713;BME280;51140;45.340;5.980;2023-04-23T12:50:29;97521.28;;;23.32;100.00
64713;BME280;51140;45.340;5.980;2023-04-23T12:52:54;97503.97;;;23.36;100.00
64713;BME280;51140;45.340;5.980;2023-04-23T12:55:20;97487.59;;;23.55;100.00
64713;BME280;51140;45.340;5.980;2023-04-23T12:57:45;97487.44;;;23.26;100.00
64713;BME280;51140;45.340;5.980;2023-04-23T13:00:11;97484.91;;;23.63;100.00
64713;BME280;51140;45.340;5.980;2023-04-23T13:02:37;97502.19;;;23.28;100.00
64713;BME280;51140;45.340;5.980;2023-04-23T13:05:02;97487.75;;;22.92;100.00
64713;BME280;51140;45.340;5.980;2023-04-23T13:07:28;97486.75;;;22.93;100.00
64713;BME280;51140;45.340;5.980;2023-04-23T13:09:53;97488.03;;;23.05;100.00
64713;BME280;51140;45.340;5.980;2023-04-23T13:12:19;97482.88;;;23.03;100.00
64713;BME280;51140;45.340;5.980;2023-04-23T13:14:44;97479.31;;;22.88;100.00
64713;BME280;51140;45.340;5.980;2023-04-23T13:17:10;97485.84;;;22.61;100.00
64713;BME280;51140;45.340;5.980;2023-04-23T13:19:35;97494.19;;;22.42;100.00
64713;BME280;51140;45.340;5.980;2023-04-23T13:22:04;97486.06;;;22.27;100.00
64713;BME280;51140;45.340;5.980;2023-04-23T13:24:29;97480.94;;;22.26;100.00